createdAt,value
2017-05-25T00:00:26.504Z,0
2017-05-25T00:01:27.228Z,0
2017-05-25T00:02:27.976Z,0
2017-05-25T00:03:28.952Z,0
2017-05-25T00:04:29.676Z,0
2017-05-25T00:05:30.399Z,0
2017-05-25T00:06:31.124Z,0
2017-05-25T00:07:31.851Z,0
2017-05-25T00:08:32.819Z,0
2017-05-25T00:09:33.544Z,0
2017-05-25T00:10:34.268Z,0
2017-05-25T00:11:34.992Z,0
2017-05-25T00:12:35.717Z,0
2017-05-25T00:13:36.693Z,0
2017-05-25T00:14:37.416Z,0
2017-05-25T00:15:38.137Z,0
2017-05-25T00:16:38.861Z,0
2017-05-25T00:17:39.586Z,0
2017-05-25T00:18:40.560Z,0
2017-05-25T00:19:41.284Z,0
2017-05-25T00:20:42.009Z,0
2017-05-25T00:21:42.736Z,0
2017-05-25T00:22:43.481Z,0
2017-05-25T00:23:44.455Z,0
2017-05-25T00:24:45.180Z,0
2017-05-25T00:25:45.900Z,0
2017-05-25T00:26:46.624Z,0
2017-05-25T00:27:47.348Z,0
2017-05-25T00:28:48.323Z,0
2017-05-25T00:29:49.048Z,0
2017-05-25T00:30:49.771Z,0
2017-05-25T00:31:50.494Z,0
2017-05-25T00:32:51.218Z,0
2017-05-25T00:33:52.216Z,0
2017-05-25T00:34:52.941Z,0
2017-05-25T00:35:53.689Z,0
2017-05-25T00:36:54.415Z,0
2017-05-25T00:37:55.162Z,0
2017-05-25T00:38:56.161Z,0
2017-05-25T00:39:56.885Z,0
2017-05-25T00:40:57.608Z,0
2017-05-25T00:41:58.330Z,0
2017-05-25T00:42:59.053Z,0
2017-05-25T00:44:00.026Z,0
2017-05-25T00:45:00.773Z,0
2017-05-25T00:46:01.500Z,0
2017-05-25T00:47:02.247Z,0
2017-05-25T00:48:02.974Z,0
2017-05-25T00:49:03.947Z,0
2017-05-25T00:50:04.673Z,0
2017-05-25T00:51:05.396Z,0
2017-05-25T00:52:06.118Z,0
2017-05-25T00:53:06.843Z,0
2017-05-25T00:54:07.817Z,0
2017-05-25T00:55:08.541Z,0
2017-05-25T00:56:09.265Z,0
2017-05-25T00:57:09.988Z,0
2017-05-25T00:58:10.710Z,0
2017-05-25T00:59:11.685Z,0
2017-05-25T01:00:12.410Z,0
2017-05-25T01:01:13.134Z,0
2017-05-25T01:02:13.883Z,0
2017-05-25T01:03:14.608Z,0
2017-05-25T01:04:15.579Z,0
2017-05-25T01:05:16.302Z,0
2017-05-25T01:06:17.029Z,0
2017-05-25T01:08:18.379Z,0
2017-05-25T01:09:19.354Z,0
2017-05-25T01:10:20.077Z,0
2017-05-25T01:11:20.800Z,0
2017-05-25T01:12:21.524Z,0
2017-05-25T01:13:22.250Z,0
2017-05-25T01:14:23.224Z,0
2017-05-25T01:15:23.948Z,0
2017-05-25T01:16:24.674Z,0
2017-05-25T01:17:25.398Z,0
2017-05-25T01:18:26.121Z,0
2017-05-25T01:19:27.098Z,0
2017-05-25T01:20:27.820Z,0
2017-05-25T01:21:28.571Z,0
2017-05-25T01:22:29.320Z,0
2017-05-25T01:23:30.043Z,0
2017-05-25T01:24:31.019Z,0
2017-05-25T01:25:31.743Z,0
2017-05-25T01:26:32.494Z,0
2017-05-25T01:27:33.219Z,0
2017-05-25T01:28:33.940Z,0
2017-05-25T01:29:34.915Z,0
2017-05-25T01:30:35.640Z,0
2017-05-25T01:31:36.367Z,0
2017-05-25T01:32:37.116Z,0
2017-05-25T01:33:37.842Z,0
2017-05-25T01:34:38.819Z,0
2017-05-25T01:35:39.544Z,0
2017-05-25T01:36:40.268Z,0
2017-05-25T01:37:40.995Z,0
2017-05-25T01:38:41.717Z,0
2017-05-25T01:39:42.691Z,0
2017-05-25T01:40:43.415Z,0
2017-05-25T01:41:44.139Z,0
2017-05-25T01:42:44.891Z,0
2017-05-25T01:43:45.615Z,0
2017-05-25T01:44:46.589Z,0
2017-05-25T01:45:47.315Z,0
2017-05-25T01:46:48.040Z,0
2017-05-25T01:47:48.763Z,0
2017-05-25T01:48:49.497Z,0
2017-05-25T01:49:50.472Z,0
2017-05-25T01:50:51.222Z,0
2017-05-25T01:51:51.946Z,0
2017-05-25T01:52:52.670Z,0
2017-05-25T01:53:53.401Z,0
2017-05-25T01:54:54.369Z,0
2017-05-25T01:55:55.094Z,0
2017-05-25T01:56:55.817Z,0
2017-05-25T01:57:56.538Z,0
2017-05-25T01:58:57.264Z,0
2017-05-25T01:59:58.240Z,0
2017-05-25T02:00:58.965Z,0
2017-05-25T02:01:59.688Z,0
2017-05-25T02:03:00.413Z,0
2017-05-25T02:04:01.139Z,0
2017-05-25T02:05:02.163Z,0
2017-05-25T02:06:02.886Z,0
2017-05-25T02:07:03.610Z,0
2017-05-25T02:08:04.337Z,0
2017-05-25T02:09:05.060Z,0
2017-05-25T02:10:06.056Z,0
2017-05-25T02:11:06.780Z,0
2017-05-25T02:12:07.508Z,0
2017-05-25T02:13:08.230Z,0
2017-05-25T02:14:08.956Z,0
2017-05-25T02:15:09.931Z,0
2017-05-25T02:16:10.656Z,0
2017-05-25T02:17:11.381Z,0
2017-05-25T02:18:12.105Z,0
2017-05-25T02:19:12.829Z,0
2017-05-25T02:20:13.806Z,0
2017-05-25T02:21:14.529Z,0
2017-05-25T02:22:15.276Z,0
2017-05-25T02:23:16.001Z,0
2017-05-25T02:24:16.725Z,0
2017-05-25T02:25:17.704Z,0
2017-05-25T02:26:18.450Z,0
2017-05-25T02:27:19.173Z,0
2017-05-25T02:28:19.899Z,0
2017-05-25T02:29:20.629Z,0
2017-05-25T02:30:21.598Z,0
2017-05-25T02:31:22.324Z,0
2017-05-25T02:32:23.048Z,0
2017-05-25T02:33:23.772Z,0
2017-05-25T02:34:24.497Z,0
2017-05-25T02:35:25.472Z,0
2017-05-25T02:36:26.200Z,0
2017-05-25T02:37:26.921Z,0
2017-05-25T02:38:27.648Z,0
2017-05-25T02:39:28.375Z,0
2017-05-25T02:40:29.350Z,0
2017-05-25T02:41:30.075Z,0
2017-05-25T02:42:30.798Z,0
2017-05-25T02:43:31.548Z,0
2017-05-25T02:44:32.299Z,4
2017-05-25T02:45:33.270Z,4
2017-05-25T02:46:33.998Z,0
2017-05-25T02:47:34.723Z,0
2017-05-25T02:48:35.474Z,4
2017-05-25T02:49:36.199Z,4
2017-05-25T02:50:37.174Z,4
2017-05-25T02:51:37.899Z,4
2017-05-25T02:52:38.624Z,4
2017-05-25T02:53:39.349Z,4
2017-05-25T02:54:40.074Z,8
2017-05-25T02:55:41.049Z,8
2017-05-25T02:56:41.774Z,8
2017-05-25T02:57:42.499Z,8
2017-05-25T02:58:43.247Z,12
2017-05-25T02:59:43.972Z,8
2017-05-25T03:00:44.946Z,12
2017-05-25T03:01:45.676Z,16
2017-05-25T03:02:46.401Z,16
2017-05-25T03:03:47.129Z,16
2017-05-25T03:04:47.854Z,20
2017-05-25T03:05:48.829Z,20
2017-05-25T03:06:49.553Z,28
2017-05-25T03:07:50.280Z,28
2017-05-25T03:08:51.007Z,28
2017-05-25T03:09:51.733Z,32
2017-05-25T03:10:52.711Z,36
2017-05-25T03:11:53.436Z,44
2017-05-25T03:12:54.163Z,56
2017-05-25T03:13:54.889Z,60
2017-05-25T03:14:55.618Z,64
2017-05-25T03:15:56.591Z,64
2017-05-25T03:16:57.320Z,68
2017-05-25T03:17:58.045Z,76
2017-05-25T03:18:58.775Z,80
2017-05-25T03:19:59.498Z,84
2017-05-25T03:21:00.500Z,84
2017-05-25T03:22:01.226Z,88
2017-05-25T03:23:01.952Z,92
2017-05-25T03:24:02.682Z,100
2017-05-25T03:25:03.407Z,112
2017-05-25T03:26:04.412Z,124
2017-05-25T03:27:05.136Z,136
2017-05-25T03:28:05.865Z,144
2017-05-25T03:29:06.594Z,148
2017-05-25T03:30:07.323Z,148
2017-05-25T03:31:08.298Z,156
2017-05-25T03:32:09.027Z,164
2017-05-25T03:33:09.755Z,176
2017-05-25T03:34:10.482Z,192
2017-05-25T03:35:11.210Z,204
2017-05-25T03:36:12.186Z,216
2017-05-25T03:37:12.915Z,220
2017-05-25T03:38:13.643Z,236
2017-05-25T03:39:14.372Z,252
2017-05-25T03:40:15.129Z,264
2017-05-25T03:41:16.104Z,268
2017-05-25T03:42:16.831Z,276
2017-05-25T03:43:17.559Z,300
2017-05-25T03:44:18.289Z,320
2017-05-25T03:45:19.019Z,340
2017-05-25T03:46:19.998Z,356
2017-05-25T03:47:20.729Z,360
2017-05-25T03:48:21.457Z,360
2017-05-25T03:49:22.183Z,364
2017-05-25T03:50:22.913Z,360
2017-05-25T03:51:23.893Z,368
2017-05-25T03:52:24.621Z,396
2017-05-25T03:53:25.348Z,400
2017-05-25T03:54:26.075Z,424
2017-05-25T03:55:26.802Z,436
2017-05-25T03:56:27.781Z,456
2017-05-25T03:57:28.510Z,448
2017-05-25T03:58:29.240Z,452
2017-05-25T03:59:29.971Z,460
2017-05-25T04:00:30.697Z,468
2017-05-25T04:01:31.702Z,488
2017-05-25T04:02:32.429Z,524
2017-05-25T04:03:33.163Z,552
2017-05-25T04:04:33.889Z,568
2017-05-25T04:05:34.615Z,580
2017-05-25T04:06:35.592Z,604
2017-05-25T04:07:36.322Z,652
2017-05-25T04:08:37.049Z,688
2017-05-25T04:09:37.781Z,696
2017-05-25T04:10:38.510Z,712
2017-05-25T04:11:39.486Z,736
2017-05-25T04:12:40.227Z,740
2017-05-25T04:13:40.942Z,756
2017-05-25T04:14:41.696Z,776
2017-05-25T04:15:42.425Z,792
2017-05-25T04:16:43.405Z,808
2017-05-25T04:17:44.132Z,880
2017-05-25T04:18:44.861Z,856
2017-05-25T04:19:45.589Z,840
2017-05-25T04:20:46.318Z,892
2017-05-25T04:21:47.294Z,924
2017-05-25T04:22:48.047Z,932
2017-05-25T04:23:48.776Z,964
2017-05-25T04:24:49.504Z,976
2017-05-25T04:25:50.234Z,972
2017-05-25T04:26:51.216Z,1012
2017-05-25T04:27:51.946Z,1052
2017-05-25T04:28:52.702Z,1016
2017-05-25T04:29:53.433Z,984
2017-05-25T04:30:54.160Z,996
2017-05-25T04:31:55.140Z,1032
2017-05-25T04:32:55.870Z,1060
2017-05-25T04:33:56.598Z,1120
2017-05-25T04:34:57.327Z,1124
2017-05-25T04:35:58.060Z,1160
2017-05-25T04:36:59.042Z,1164
2017-05-25T04:37:59.772Z,1236
2017-05-25T04:39:00.526Z,1244
2017-05-25T04:40:01.258Z,1220
2017-05-25T04:41:01.988Z,1264
2017-05-25T04:42:03.015Z,1308
2017-05-25T04:43:03.771Z,1308
2017-05-25T04:44:04.500Z,1312
2017-05-25T04:45:05.253Z,1300
2017-05-25T04:46:05.985Z,1352
2017-05-25T04:47:06.966Z,1400
2017-05-25T04:48:07.694Z,1372
2017-05-25T04:49:08.427Z,1428
2017-05-25T04:50:09.156Z,1468
2017-05-25T04:51:09.883Z,1492
2017-05-25T04:52:10.864Z,1536
2017-05-25T04:53:11.595Z,1612
2017-05-25T04:54:12.324Z,1688
2017-05-25T04:55:13.055Z,1800
2017-05-25T04:56:13.784Z,1868
2017-05-25T04:57:14.768Z,1896
2017-05-25T04:58:15.517Z,1900
2017-05-25T04:59:16.247Z,1864
2017-05-25T05:00:16.975Z,1832
2017-05-25T05:01:17.707Z,1852
2017-05-25T05:02:18.684Z,1928
2017-05-25T05:03:19.416Z,2052
2017-05-25T05:04:20.150Z,2064
2017-05-25T05:05:20.874Z,2084
2017-05-25T05:06:21.605Z,2076
2017-05-25T05:07:22.587Z,2080
2017-05-25T05:08:23.343Z,2176
2017-05-25T05:09:24.094Z,2208
2017-05-25T05:10:24.825Z,2164
2017-05-25T05:11:25.556Z,2120
2017-05-25T05:12:26.565Z,2148
2017-05-25T05:13:27.290Z,2096
2017-05-25T05:14:28.019Z,2164
2017-05-25T05:15:28.750Z,2140
2017-05-25T05:16:29.479Z,1992
2017-05-25T05:17:30.458Z,1924
2017-05-25T05:18:31.186Z,2032
2017-05-25T05:19:31.919Z,2024
2017-05-25T05:20:32.650Z,1964
2017-05-25T05:21:33.405Z,2036
2017-05-25T05:22:34.388Z,2160
2017-05-25T05:23:35.118Z,2448
2017-05-25T05:24:35.850Z,2704
2017-05-25T05:25:36.579Z,2704
2017-05-25T05:26:37.310Z,2728
2017-05-25T05:27:38.287Z,2808
2017-05-25T05:28:39.017Z,2904
2017-05-25T05:29:39.747Z,2924
2017-05-25T05:30:40.478Z,2988
2017-05-25T05:31:41.208Z,3156
2017-05-25T05:32:42.191Z,3332
2017-05-25T05:33:42.923Z,3460
2017-05-25T05:34:43.654Z,3616
2017-05-25T05:35:44.412Z,3604
2017-05-25T05:36:45.144Z,3932
2017-05-25T05:37:46.126Z,3756
2017-05-25T05:38:46.860Z,3572
2017-05-25T05:39:47.590Z,3592
2017-05-25T05:40:48.319Z,3604
2017-05-25T05:41:49.051Z,3712
2017-05-25T05:42:50.031Z,3876
2017-05-25T05:43:50.762Z,4016
2017-05-25T05:44:51.493Z,4364
2017-05-25T05:45:52.222Z,4352
2017-05-25T05:46:52.955Z,4580
2017-05-25T05:47:53.936Z,5308
2017-05-25T05:48:54.669Z,6072
2017-05-25T05:49:55.404Z,6528
2017-05-25T05:50:56.133Z,6260
2017-05-25T05:51:56.864Z,5908
2017-05-25T05:52:57.847Z,5568
2017-05-25T05:53:58.578Z,5496
2017-05-25T05:54:59.312Z,5528
2017-05-25T05:56:00.042Z,6020
2017-05-25T05:57:00.802Z,6204
2017-05-25T05:58:01.783Z,6732
2017-05-25T05:59:02.515Z,6896
2017-05-25T06:00:03.246Z,6688
2017-05-25T06:01:03.978Z,6820
2017-05-25T06:02:04.712Z,6508
2017-05-25T06:03:05.692Z,6740
2017-05-25T06:04:06.424Z,7440
2017-05-25T06:05:07.157Z,7728
2017-05-25T06:06:07.891Z,7320
2017-05-25T06:07:08.650Z,6964
2017-05-25T06:08:09.630Z,7436
2017-05-25T06:09:10.364Z,7752
2017-05-25T06:10:11.097Z,7368
2017-05-25T06:11:11.830Z,6672
2017-05-25T06:12:12.561Z,5960
2017-05-25T06:13:13.545Z,5492
2017-05-25T06:14:14.275Z,5324
2017-05-25T06:15:15.008Z,5548
2017-05-25T06:16:15.742Z,5976
2017-05-25T06:17:16.475Z,6008
2017-05-25T06:18:17.458Z,5844
2017-05-25T06:19:18.192Z,5444
2017-05-25T06:20:18.925Z,4964
2017-05-25T06:21:19.658Z,4876
2017-05-25T06:22:20.391Z,4628
2017-05-25T06:23:21.373Z,4512
2017-05-25T06:24:22.109Z,4372
2017-05-25T06:25:22.837Z,4724
2017-05-25T06:26:23.572Z,4960
2017-05-25T06:27:24.302Z,5236
2017-05-25T06:28:25.285Z,5736
2017-05-25T06:29:26.017Z,6212
2017-05-25T06:30:26.752Z,6300
2017-05-25T06:31:27.484Z,6624
2017-05-25T06:32:28.216Z,7076
2017-05-25T06:33:29.199Z,7188
2017-05-25T06:34:29.934Z,6444
2017-05-25T06:35:30.666Z,7324
2017-05-25T06:36:31.397Z,9172
2017-05-25T06:37:32.135Z,10764
2017-05-25T06:38:33.117Z,11420
2017-05-25T06:39:33.852Z,10912
2017-05-25T06:40:34.586Z,9484
2017-05-25T06:41:35.318Z,8608
2017-05-25T06:42:36.055Z,8820
2017-05-25T06:43:37.039Z,7828
2017-05-25T06:44:37.772Z,6132
2017-05-25T06:45:38.508Z,5992
2017-05-25T06:46:39.240Z,5788
2017-05-25T06:47:39.973Z,5924
2017-05-25T06:48:40.956Z,5740
2017-05-25T06:49:41.715Z,5668
2017-05-25T06:50:42.450Z,5552
2017-05-25T06:51:43.180Z,5500
2017-05-25T06:52:43.935Z,5488
2017-05-25T06:53:44.919Z,5508
2017-05-25T06:54:45.653Z,5568
2017-05-25T06:55:46.383Z,5592
2017-05-25T06:56:47.119Z,5616
2017-05-25T06:57:47.852Z,5816
2017-05-25T06:58:48.834Z,5972
2017-05-25T06:59:49.568Z,6544
2017-05-25T07:00:50.304Z,7908
2017-05-25T07:01:51.038Z,8928
2017-05-25T07:02:51.794Z,9284
2017-05-25T07:03:52.779Z,10152
2017-05-25T07:04:53.513Z,10292
2017-05-25T07:05:54.247Z,10020
2017-05-25T07:06:54.981Z,10368
2017-05-25T07:07:55.717Z,10908
2017-05-25T07:08:56.704Z,11320
2017-05-25T07:09:57.441Z,11908
2017-05-25T07:10:58.174Z,11876
2017-05-25T07:11:58.911Z,12580
2017-05-25T07:12:59.644Z,11676
2017-05-25T07:14:00.630Z,11060
2017-05-25T07:15:01.367Z,11608
2017-05-25T07:16:02.102Z,11320
2017-05-25T07:17:02.861Z,10420
2017-05-25T07:18:03.599Z,11140
2017-05-25T07:19:04.583Z,11512
2017-05-25T07:20:05.321Z,10792
2017-05-25T07:21:06.057Z,11408
2017-05-25T07:22:06.792Z,10896
2017-05-25T07:23:07.531Z,11508
2017-05-25T07:24:08.517Z,9692
2017-05-25T07:25:09.254Z,8324
2017-05-25T07:26:09.991Z,8648
2017-05-25T07:27:10.730Z,10744
2017-05-25T07:28:11.467Z,10784
2017-05-25T07:29:12.456Z,10968
2017-05-25T07:30:13.197Z,12104
2017-05-25T07:31:13.935Z,13136
2017-05-25T07:32:14.678Z,14540
2017-05-25T07:33:15.421Z,15584
2017-05-25T07:34:16.415Z,16176
2017-05-25T07:35:17.155Z,13196
2017-05-25T07:36:17.899Z,9256
2017-05-25T07:37:18.644Z,11740
2017-05-25T07:38:19.386Z,13988
2017-05-25T07:39:20.379Z,13792
2017-05-25T07:40:21.120Z,13784
2017-05-25T07:41:21.866Z,15452
2017-05-25T07:42:22.609Z,15872
2017-05-25T07:43:23.355Z,16640
2017-05-25T07:44:24.352Z,15756
2017-05-25T07:45:25.097Z,12260
2017-05-25T07:46:25.841Z,13268
2017-05-25T07:47:26.587Z,12168
2017-05-25T07:48:27.331Z,10424
2017-05-25T07:49:28.322Z,11892
2017-05-25T07:50:29.063Z,9088
2017-05-25T07:51:29.803Z,7532
2017-05-25T07:52:30.567Z,7476
2017-05-25T07:53:31.307Z,8476
2017-05-25T07:54:32.301Z,12796
2017-05-25T07:55:33.039Z,11980
2017-05-25T07:56:33.781Z,12024
2017-05-25T07:57:34.518Z,12024
2017-05-25T07:58:35.256Z,16864
2017-05-25T07:59:36.250Z,17344
2017-05-25T08:00:36.988Z,13040
2017-05-25T08:01:37.724Z,12868
2017-05-25T08:02:38.488Z,10500
2017-05-25T08:03:39.224Z,10328
2017-05-25T08:04:40.214Z,11488
2017-05-25T08:05:40.952Z,12292
2017-05-25T08:06:41.687Z,13916
2017-05-25T08:07:42.425Z,15676
2017-05-25T08:08:43.168Z,21248
2017-05-25T08:09:44.152Z,19456
2017-05-25T08:10:44.893Z,65088
2017-05-25T08:11:45.657Z,20832
2017-05-25T08:12:46.397Z,71648
2017-05-25T08:13:47.142Z,17856
2017-05-25T08:14:48.132Z,13792
2017-05-25T08:15:48.877Z,62720
2017-05-25T08:16:49.620Z,70432
2017-05-25T08:17:50.361Z,75552
2017-05-25T08:18:51.107Z,73568
2017-05-25T08:19:52.099Z,14208
2017-05-25T08:20:52.845Z,24256
2017-05-25T08:21:53.589Z,19040
2017-05-25T08:22:54.330Z,20640
2017-05-25T08:23:55.097Z,37952
2017-05-25T08:24:56.091Z,78624
2017-05-25T08:25:56.838Z,73440
2017-05-25T08:26:57.580Z,69568
2017-05-25T08:27:58.322Z,66048
2017-05-25T08:28:59.065Z,62784
2017-05-25T08:30:00.058Z,59872
2017-05-25T08:31:00.800Z,61152
2017-05-25T08:32:01.541Z,62816
2017-05-25T08:33:02.286Z,49440
2017-05-25T08:34:03.025Z,41312
2017-05-25T08:35:04.022Z,77952
2017-05-25T08:36:04.764Z,76576
2017-05-25T08:37:05.530Z,81312
2017-05-25T08:38:06.273Z,76544
2017-05-25T08:39:07.019Z,77856
2017-05-25T08:40:08.012Z,80320
2017-05-25T08:41:08.843Z,75072
2017-05-25T08:42:09.522Z,79232
2017-05-25T08:43:10.291Z,74880
2017-05-25T08:44:11.035Z,80192
2017-05-25T08:45:12.030Z,77472
2017-05-25T08:46:12.779Z,81792
2017-05-25T08:47:13.518Z,64992
2017-05-25T08:48:14.270Z,72768
2017-05-25T08:49:15.011Z,42816
2017-05-25T08:50:16.006Z,85728
2017-05-25T08:51:16.748Z,28672
2017-05-25T08:52:17.494Z,32864
2017-05-25T08:53:18.238Z,83872
2017-05-25T08:54:18.985Z,85760
2017-05-25T08:55:19.979Z,24352
2017-05-25T08:56:20.721Z,27872
2017-05-25T08:57:21.465Z,14860
2017-05-25T08:58:22.210Z,13364
2017-05-25T08:59:22.957Z,14952
2017-05-25T09:00:23.952Z,12784
2017-05-25T09:01:24.691Z,17144
2017-05-25T09:02:25.434Z,86592
2017-05-25T09:03:26.181Z,85024
2017-05-25T09:04:26.926Z,87552
2017-05-25T09:05:27.924Z,85312
2017-05-25T09:06:28.667Z,84576
2017-05-25T09:07:29.411Z,80256
2017-05-25T09:08:30.158Z,82688
2017-05-25T09:09:30.903Z,81344
2017-05-25T09:10:31.896Z,80032
2017-05-25T09:11:32.645Z,81568
2017-05-25T09:12:33.390Z,80416
2017-05-25T09:13:34.135Z,83616
2017-05-25T09:14:34.912Z,84576
2017-05-25T09:15:35.938Z,86464
2017-05-25T09:16:36.685Z,82336
2017-05-25T09:17:37.428Z,88992
2017-05-25T09:18:38.184Z,91552
2017-05-25T09:19:38.938Z,91808
2017-05-25T09:20:39.943Z,92544
2017-05-25T09:21:40.698Z,69248
2017-05-25T09:22:41.453Z,85216
2017-05-25T09:23:42.209Z,82592
2017-05-25T09:24:42.966Z,30528
2017-05-25T09:25:43.997Z,72320
2017-05-25T09:26:44.748Z,86112
2017-05-25T09:27:45.502Z,84896
2017-05-25T09:28:46.257Z,83680
2017-05-25T09:29:47.016Z,88832
2017-05-25T09:30:48.074Z,85568
2017-05-25T09:31:48.839Z,90176
2017-05-25T09:32:49.595Z,91200
2017-05-25T09:33:50.349Z,89408
2017-05-25T09:34:51.105Z,93248
2017-05-25T09:35:52.110Z,89536
2017-05-25T09:36:52.863Z,91424
2017-05-25T09:37:53.614Z,91328
2017-05-25T09:38:54.370Z,94656
2017-05-25T09:39:55.123Z,91968
2017-05-25T09:40:56.129Z,88768
2017-05-25T09:41:56.885Z,87552
2017-05-25T09:42:57.640Z,90752
2017-05-25T09:43:58.395Z,94016
2017-05-25T09:44:59.152Z,93216
2017-05-25T09:46:00.159Z,93536
2017-05-25T09:47:00.941Z,92864
2017-05-25T09:48:01.695Z,95616
2017-05-25T09:49:02.453Z,93824
2017-05-25T09:50:03.210Z,94112
2017-05-25T09:51:04.218Z,97312
2017-05-25T09:52:04.965Z,84416
2017-05-25T09:53:05.719Z,14632
2017-05-25T09:54:06.473Z,18208
2017-05-25T09:55:07.228Z,85984
2017-05-25T09:56:08.229Z,84928
2017-05-25T09:57:08.982Z,90848
2017-05-25T09:58:09.737Z,76928
2017-05-25T09:59:10.493Z,66592
2017-05-25T10:00:11.245Z,76736
2017-05-25T10:01:12.249Z,73472
2017-05-25T10:02:13.006Z,71552
2017-05-25T10:03:13.755Z,74912
2017-05-25T10:04:14.511Z,83328
2017-05-25T10:05:15.291Z,85632
2017-05-25T10:06:16.315Z,86560
2017-05-25T10:07:17.070Z,87744
2017-05-25T10:08:17.822Z,88480
2017-05-25T10:09:18.573Z,92768
2017-05-25T10:10:19.323Z,77056
2017-05-25T10:11:20.357Z,97408
2017-05-25T10:12:21.110Z,90080
2017-05-25T10:13:21.883Z,97152
2017-05-25T10:14:22.633Z,95872
2017-05-25T10:15:23.409Z,97376
2017-05-25T10:16:24.415Z,102176
2017-05-25T10:17:25.169Z,100832
2017-05-25T10:18:25.955Z,103840
2017-05-25T10:19:26.708Z,104416
2017-05-25T10:20:27.466Z,105440
2017-05-25T10:21:28.474Z,106304
2017-05-25T10:22:29.225Z,108352
2017-05-25T10:23:30.001Z,97664
2017-05-25T10:24:30.754Z,95648
2017-05-25T10:25:31.509Z,92576
2017-05-25T10:26:32.514Z,93664
2017-05-25T10:27:33.292Z,91104
2017-05-25T10:28:34.046Z,88128
2017-05-25T10:29:34.798Z,92640
2017-05-25T10:30:35.553Z,97024
2017-05-25T10:31:36.557Z,27456
2017-05-25T10:32:37.308Z,99264
2017-05-25T10:33:38.086Z,100448
2017-05-25T10:34:38.838Z,44864
2017-05-25T10:35:39.591Z,93824
2017-05-25T10:36:40.594Z,91520
2017-05-25T10:37:41.344Z,85472
2017-05-25T10:38:42.099Z,94688
2017-05-25T10:39:42.855Z,98720
2017-05-25T10:40:43.608Z,41216
2017-05-25T10:41:44.615Z,94720
2017-05-25T10:42:45.366Z,92864
2017-05-25T10:43:46.114Z,92576
2017-05-25T10:44:46.866Z,94272
2017-05-25T10:45:47.621Z,99424
2017-05-25T10:46:48.628Z,96544
2017-05-25T10:47:49.409Z,93344
2017-05-25T10:48:50.161Z,97664
2017-05-25T10:49:50.916Z,100288
2017-05-25T10:50:51.669Z,84800
2017-05-25T10:51:52.676Z,104992
2017-05-25T10:52:53.428Z,33376
2017-05-25T10:53:54.198Z,26336
2017-05-25T10:54:54.950Z,87072
2017-05-25T10:55:55.704Z,97408
2017-05-25T10:56:56.709Z,91840
2017-05-25T10:57:57.462Z,97664
2017-05-25T10:58:58.216Z,16328
2017-05-25T10:59:58.969Z,95584
2017-05-25T11:00:59.725Z,99104
2017-05-25T11:02:00.727Z,100160
2017-05-25T11:03:01.482Z,95424
2017-05-25T11:04:02.260Z,101888
2017-05-25T11:05:03.013Z,100256
2017-05-25T11:06:03.764Z,95200
2017-05-25T11:07:04.764Z,94816
2017-05-25T11:08:05.520Z,92544
2017-05-25T11:09:06.270Z,91488
2017-05-25T11:10:07.022Z,87488
2017-05-25T11:11:07.770Z,80032
2017-05-25T11:12:08.771Z,35456
2017-05-25T11:13:09.524Z,37280
2017-05-25T11:14:10.275Z,97248
2017-05-25T11:15:11.028Z,93120
2017-05-25T11:16:11.780Z,95968
2017-05-25T11:17:12.783Z,103904
2017-05-25T11:18:13.539Z,100288
2017-05-25T11:19:14.291Z,99808
2017-05-25T11:20:15.079Z,102080
2017-05-25T11:21:15.827Z,96480
2017-05-25T11:22:16.830Z,97952
2017-05-25T11:23:17.578Z,98304
2017-05-25T11:24:18.328Z,95328
2017-05-25T11:25:19.082Z,97408
2017-05-25T11:26:19.832Z,96416
2017-05-25T11:27:20.836Z,96448
2017-05-25T11:28:21.610Z,94560
2017-05-25T11:29:22.361Z,97184
2017-05-25T11:30:23.112Z,90848
2017-05-25T11:31:23.863Z,91680
2017-05-25T11:32:24.865Z,93344
2017-05-25T11:33:25.615Z,93536
2017-05-25T11:34:26.364Z,94272
2017-05-25T11:35:27.140Z,96480
2017-05-25T11:36:27.891Z,97760
2017-05-25T11:37:28.893Z,97408
2017-05-25T11:38:29.669Z,72096
2017-05-25T11:39:30.421Z,93184
2017-05-25T11:40:31.172Z,96768
2017-05-25T11:41:31.923Z,70528
2017-05-25T11:42:32.947Z,92096
2017-05-25T11:43:33.697Z,96992
2017-05-25T11:44:34.449Z,98464
2017-05-25T11:45:35.203Z,92928
2017-05-25T11:46:35.955Z,89472
2017-05-25T11:47:36.957Z,96768
2017-05-25T11:48:37.709Z,91232
2017-05-25T11:49:38.459Z,83552
2017-05-25T11:50:39.211Z,90112
2017-05-25T11:51:39.987Z,86784
2017-05-25T11:52:40.989Z,85088
2017-05-25T11:53:41.740Z,91200
2017-05-25T11:54:42.494Z,91968
2017-05-25T11:55:43.245Z,86752
2017-05-25T11:56:43.997Z,67840
2017-05-25T11:57:45.000Z,97440
2017-05-25T11:58:45.750Z,88160
2017-05-25T11:59:46.503Z,91488
2017-05-25T12:00:47.277Z,84384
2017-05-25T12:01:48.031Z,90848
2017-05-25T12:02:49.033Z,93088
2017-05-25T12:03:49.783Z,98528
2017-05-25T12:04:50.536Z,97120
2017-05-25T12:05:51.311Z,93440
2017-05-25T12:06:52.062Z,92224
2017-05-25T12:07:53.069Z,93472
2017-05-25T12:08:53.818Z,87232
2017-05-25T12:09:54.592Z,76800
2017-05-25T12:10:55.370Z,85280
2017-05-25T12:11:56.126Z,83904
2017-05-25T12:12:57.122Z,80448
2017-05-25T12:13:57.875Z,80192
2017-05-25T12:14:58.628Z,86368
2017-05-25T12:15:59.400Z,87584
2017-05-25T12:17:00.153Z,47296
2017-05-25T12:18:01.152Z,54048
2017-05-25T12:19:01.902Z,88256
2017-05-25T12:20:02.654Z,90176
2017-05-25T12:21:03.404Z,88832
2017-05-25T12:22:04.157Z,89376
2017-05-25T12:23:05.161Z,90144
2017-05-25T12:24:05.915Z,91040
2017-05-25T12:25:06.665Z,90432
2017-05-25T12:26:07.417Z,89120
2017-05-25T12:27:08.168Z,90208
2017-05-25T12:28:09.171Z,89376
2017-05-25T12:29:09.928Z,87264
2017-05-25T12:30:10.677Z,85440
2017-05-25T12:31:11.430Z,27296
2017-05-25T12:32:12.205Z,38464
2017-05-25T12:33:13.205Z,21792
2017-05-25T12:34:13.954Z,22624
2017-05-25T12:35:14.707Z,78080
2017-05-25T12:36:15.458Z,19552
2017-05-25T12:37:16.207Z,21024
2017-05-25T12:38:17.211Z,89760
2017-05-25T12:39:17.963Z,92992
2017-05-25T12:40:18.713Z,91296
2017-05-25T12:41:19.466Z,95392
2017-05-25T12:42:20.219Z,98368
2017-05-25T12:43:21.221Z,16708
2017-05-25T12:44:21.975Z,94080
2017-05-25T12:45:22.731Z,89728
2017-05-25T12:46:23.482Z,28896
2017-05-25T12:47:24.237Z,84512
2017-05-25T12:48:25.237Z,81376
2017-05-25T12:49:25.993Z,83584
2017-05-25T12:50:26.769Z,83712
2017-05-25T12:51:27.517Z,16052
2017-05-25T12:52:28.265Z,18848
2017-05-25T12:53:29.292Z,88064
2017-05-25T12:54:30.042Z,89536
2017-05-25T12:55:30.793Z,93952
2017-05-25T12:56:31.544Z,87584
2017-05-25T12:57:32.298Z,83904
2017-05-25T12:58:33.296Z,86816
2017-05-25T12:59:34.051Z,85248
2017-05-25T13:00:34.830Z,84032
2017-05-25T13:01:35.586Z,86752
2017-05-25T13:02:36.337Z,84896
2017-05-25T13:03:37.344Z,85376
2017-05-25T13:04:38.100Z,88448
2017-05-25T13:05:38.847Z,73344
2017-05-25T13:06:39.601Z,79072
2017-05-25T13:07:40.356Z,85408
2017-05-25T13:08:41.358Z,87296
2017-05-25T13:09:42.132Z,89856
2017-05-25T13:10:42.881Z,90272
2017-05-25T13:11:43.635Z,90944
2017-05-25T13:12:44.390Z,95232
2017-05-25T13:13:45.394Z,97024
2017-05-25T13:14:46.144Z,93824
2017-05-25T13:15:46.893Z,56544
2017-05-25T13:16:47.645Z,12656
2017-05-25T13:17:48.398Z,14488
2017-05-25T13:18:49.401Z,67392
2017-05-25T13:19:50.153Z,36224
2017-05-25T13:20:50.897Z,14628
2017-05-25T13:21:51.649Z,91936
2017-05-25T13:22:52.400Z,85728
2017-05-25T13:23:53.403Z,84000
2017-05-25T13:24:54.157Z,84928
2017-05-25T13:25:54.905Z,52288
2017-05-25T13:26:55.654Z,13976
2017-05-25T13:27:56.425Z,13980
2017-05-25T13:28:57.432Z,18976
2017-05-25T13:29:58.185Z,38080
2017-05-25T13:30:58.937Z,84992
2017-05-25T13:31:59.689Z,89760
2017-05-25T13:33:00.439Z,75808
2017-05-25T13:34:01.441Z,64768
2017-05-25T13:35:02.191Z,87168
2017-05-25T13:36:02.941Z,91008
2017-05-25T13:37:03.691Z,14660
2017-05-25T13:38:04.468Z,14420